createdAt,value
2023-09-27T00:00:12.391Z,12.70
2023-09-27T00:02:41.284Z,12.90
2023-09-27T00:05:12.057Z,12.90
2023-09-27T00:07:42.529Z,12.90
2023-09-27T00:10:12.610Z,13.00
2023-09-27T00:12:42.531Z,13.00
2023-09-27T00:15:13.035Z,13.00
2023-09-27T00:17:42.815Z,13.00
2023-09-27T00:20:17.033Z,12.90
2023-09-27T00:22:46.027Z,12.80
2023-09-27T00:25:15.385Z,12.80
2023-09-27T00:27:45.307Z,12.80
2023-09-27T00:30:15.319Z,12.60
2023-09-27T00:32:43.792Z,12.60
2023-09-27T00:35:15.912Z,12.60
2023-09-27T00:37:44.071Z,12.60
2023-09-27T00:40:16.389Z,12.50
2023-09-27T00:42:45.767Z,12.40
2023-09-27T00:45:13.781Z,12.30
2023-09-27T00:47:43.163Z,12.20
2023-09-27T00:50:11.406Z,12.20
2023-09-27T00:52:42.179Z,12.20
2023-09-27T00:55:13.237Z,12.30
2023-09-27T00:57:41.994Z,12.20
2023-09-27T01:00:12.736Z,12.40
2023-09-27T01:02:41.314Z,12.40
2023-09-27T01:05:10.999Z,12.50
2023-09-27T01:07:40.752Z,12.70
2023-09-27T01:10:10.117Z,12.60
2023-09-27T01:12:39.041Z,12.60
2023-09-27T01:15:08.693Z,12.70
2023-09-27T01:17:38.351Z,12.60
2023-09-27T01:20:08.018Z,12.60
2023-09-27T01:22:36.259Z,12.50
2023-09-27T01:25:09.790Z,12.50
2023-09-27T01:27:38.631Z,12.40
2023-09-27T01:30:08.029Z,12.30
2023-09-27T01:32:38.314Z,12.30
2023-09-27T01:35:07.503Z,12.20
2023-09-27T01:37:35.689Z,12.10
2023-09-27T01:40:10.371Z,12.10
2023-09-27T01:42:43.416Z,12.20
2023-09-27T01:45:12.618Z,12.30
2023-09-27T01:47:41.036Z,12.20
2023-09-27T01:50:10.982Z,12.30
2023-09-27T01:52:39.120Z,12.20
2023-09-27T01:55:09.443Z,12.20
2023-09-27T01:57:37.459Z,12.10
2023-09-27T02:00:10.372Z,12.00
2023-09-27T02:02:38.524Z,12.10
2023-09-27T02:05:07.529Z,12.10
2023-09-27T02:07:35.588Z,12.00
2023-09-27T02:10:03.685Z,12.10
2023-09-27T02:12:33.064Z,12.00
2023-09-27T02:15:01.675Z,11.70
2023-09-27T02:17:29.689Z,11.70
2023-09-27T02:19:57.864Z,11.70
2023-09-27T02:22:25.894Z,11.60
2023-09-27T02:24:54.811Z,11.60
2023-09-27T02:27:22.966Z,11.60
2023-09-27T02:29:52.371Z,11.60
2023-09-27T02:32:20.431Z,11.60
2023-09-27T02:34:48.835Z,11.60
2023-09-27T02:37:17.971Z,11.70
2023-09-27T02:39:46.021Z,11.70
2023-09-27T02:42:14.165Z,11.70
2023-09-27T02:44:42.174Z,11.70
2023-09-27T02:47:11.801Z,11.80
2023-09-27T02:49:39.841Z,11.90
2023-09-27T02:52:08.332Z,11.90
2023-09-27T02:54:36.375Z,11.80
2023-09-27T02:57:04.958Z,11.70
2023-09-27T02:59:34.303Z,11.70
2023-09-27T03:02:02.437Z,11.70
2023-09-27T03:04:33.236Z,11.70
2023-09-27T03:07:01.354Z,11.70
2023-09-27T03:09:29.326Z,11.70
2023-09-27T03:11:57.265Z,11.70
2023-09-27T03:14:25.714Z,11.70
2023-09-27T03:16:53.762Z,11.60
2023-09-27T03:19:23.511Z,11.60
2023-09-27T03:21:53.342Z,11.60
2023-09-27T03:24:21.606Z,11.60
2023-09-27T03:26:50.533Z,11.60
2023-09-27T03:29:18.554Z,11.60
2023-09-27T03:31:47.119Z,11.50
2023-09-27T03:34:15.106Z,11.40
2023-09-27T03:36:45.165Z,11.40
2023-09-27T03:39:15.145Z,11.50
2023-09-27T03:41:43.299Z,11.40
2023-09-27T03:44:11.323Z,11.40
2023-09-27T03:46:39.500Z,11.30
2023-09-27T03:49:07.611Z,11.30
2023-09-27T03:51:35.669Z,11.20
2023-09-27T03:54:03.714Z,11.20
2023-09-27T03:56:33.051Z,11.10
2023-09-27T03:59:01.097Z,11.00
2023-09-27T04:01:29.103Z,11.00
2023-09-27T04:03:57.218Z,11.00
2023-09-27T04:06:25.877Z,10.90
2023-09-27T04:08:54.015Z,10.80
2023-09-27T04:11:22.241Z,10.90
2023-09-27T04:13:51.646Z,10.90
2023-09-27T04:16:19.909Z,10.90
2023-09-27T04:18:48.018Z,10.80
2023-09-27T04:21:16.001Z,10.80
2023-09-27T04:23:44.342Z,10.80
2023-09-27T04:26:12.363Z,10.70
2023-09-27T04:28:40.369Z,10.80
2023-09-27T04:31:10.619Z,10.80
2023-09-27T04:33:42.127Z,10.80
2023-09-27T04:36:16.519Z,10.70
2023-09-27T04:38:45.262Z,10.80
2023-09-27T04:41:15.621Z,10.70
2023-09-27T04:43:44.056Z,10.70
2023-09-27T04:46:16.134Z,10.70
2023-09-27T04:48:44.277Z,10.70
2023-09-27T04:51:12.312Z,10.60
2023-09-27T04:53:40.627Z,10.70
2023-09-27T04:56:11.574Z,10.60
2023-09-27T04:58:40.156Z,10.60
2023-09-27T05:01:10.286Z,10.50
2023-09-27T05:03:40.075Z,10.50
2023-09-27T05:06:08.296Z,10.50
2023-09-27T05:08:36.530Z,10.50
2023-09-27T05:11:04.712Z,10.40
2023-09-27T05:13:32.830Z,10.40
2023-09-27T05:16:00.955Z,10.40
2023-09-27T05:18:29.028Z,10.40
2023-09-27T05:21:01.081Z,10.30
2023-09-27T05:23:29.214Z,10.40
2023-09-27T05:25:57.378Z,10.40
2023-09-27T05:28:25.415Z,10.50
2023-09-27T05:30:54.028Z,10.40
2023-09-27T05:33:22.447Z,10.30
2023-09-27T05:35:51.398Z,10.40
2023-09-27T05:38:21.810Z,10.40
2023-09-27T05:40:50.162Z,10.30
2023-09-27T05:43:18.346Z,10.40
2023-09-27T05:45:46.357Z,10.50
2023-09-27T05:48:15.428Z,10.50
2023-09-27T05:50:45.755Z,10.40
2023-09-27T05:53:14.095Z,10.40
2023-09-27T05:55:43.498Z,10.50
2023-09-27T05:58:11.515Z,10.60
2023-09-27T06:00:41.504Z,10.80
2023-09-27T06:03:09.981Z,11.00
2023-09-27T06:05:38.170Z,11.40
2023-09-27T06:08:06.538Z,11.90
2023-09-27T06:10:35.000Z,12.40
2023-09-27T06:13:06.284Z,12.80
2023-09-27T06:15:35.384Z,13.10
2023-09-27T06:18:06.907Z,13.50
2023-09-27T06:20:34.987Z,13.70
2023-09-27T06:23:05.019Z,14.30
2023-09-27T06:25:35.641Z,14.70
2023-09-27T06:28:05.807Z,15.00
2023-09-27T06:30:33.868Z,15.00
2023-09-27T06:33:01.949Z,15.10
2023-09-27T06:35:33.306Z,15.50
2023-09-27T06:38:02.542Z,16.00
2023-09-27T06:40:30.749Z,16.30
2023-09-27T06:42:59.025Z,16.50
2023-09-27T06:45:28.558Z,16.70
2023-09-27T06:47:57.464Z,16.50
2023-09-27T06:50:26.185Z,16.80
2023-09-27T06:53:06.483Z,16.90
2023-09-27T06:55:42.748Z,17.10
2023-09-27T06:58:10.741Z,17.30
2023-09-27T07:00:42.604Z,17.50
2023-09-27T07:03:10.688Z,17.60
2023-09-27T07:05:38.838Z,17.80
2023-09-27T07:08:07.253Z,18.10
2023-09-27T07:10:36.297Z,18.30
2023-09-27T07:13:05.161Z,18.10
2023-09-27T07:15:33.496Z,17.70
2023-09-27T07:18:05.114Z,17.20
2023-09-27T07:20:36.122Z,17.00
2023-09-27T07:23:05.638Z,16.70
2023-09-27T07:25:36.676Z,17.00
2023-09-27T07:28:06.370Z,17.10
2023-09-27T07:30:35.615Z,17.10
2023-09-27T07:33:07.852Z,17.00
2023-09-27T07:35:36.554Z,16.90
2023-09-27T07:38:09.000Z,17.00
2023-09-27T07:40:41.029Z,16.80
2023-09-27T07:43:09.305Z,17.20
2023-09-27T07:45:41.106Z,17.70
2023-09-27T07:48:11.644Z,18.20
2023-09-27T07:50:41.387Z,18.00
2023-09-27T07:53:10.105Z,18.00
2023-09-27T07:55:47.620Z,18.20
2023-09-27T07:58:15.842Z,18.10
2023-09-27T08:00:44.583Z,18.30
2023-09-27T08:03:15.638Z,18.30
2023-09-27T08:05:47.145Z,18.70
2023-09-27T08:08:16.059Z,18.70
2023-09-27T08:10:46.610Z,18.80
2023-09-27T08:13:16.058Z,18.70
2023-09-27T08:15:45.942Z,19.20
2023-09-27T08:18:15.383Z,19.20
2023-09-27T08:20:43.520Z,19.00
2023-09-27T08:23:12.723Z,19.40
2023-09-27T08:33:07.625Z,20.00
2023-09-27T08:35:37.143Z,20.50
2023-09-27T08:38:05.410Z,20.90
2023-09-27T08:40:33.979Z,21.20
2023-09-27T08:43:02.550Z,21.50
2023-09-27T08:45:32.768Z,21.60
2023-09-27T08:48:00.990Z,21.70
2023-09-27T08:50:30.110Z,21.70
2023-09-27T08:52:59.588Z,21.80
2023-09-27T08:55:27.834Z,22.10
2023-09-27T08:57:57.825Z,22.00
2023-09-27T09:00:28.323Z,21.70
2023-09-27T09:03:00.385Z,21.90
2023-09-27T09:08:02.248Z,22.30
2023-09-27T09:10:30.874Z,22.60
2023-09-27T09:13:00.756Z,23.00
2023-09-27T09:15:36.058Z,23.30
2023-09-27T09:18:07.895Z,23.30
2023-09-27T09:20:50.318Z,23.50
2023-09-27T09:23:34.803Z,23.70
2023-09-27T09:26:03.945Z,23.30
2023-09-27T09:28:31.920Z,23.20
2023-09-27T09:31:00.998Z,23.10
2023-09-27T09:33:30.666Z,23.50
2023-09-27T09:35:58.923Z,23.90
2023-09-27T09:38:30.246Z,23.60
2023-09-27T09:41:02.708Z,23.60
2023-09-27T09:43:35.607Z,24.00
2023-09-27T09:46:07.450Z,24.30
2023-09-27T09:48:36.655Z,24.70
2023-09-27T09:51:07.847Z,25.10
2023-09-27T09:53:40.022Z,25.30
2023-09-27T09:58:45.875Z,25.10
2023-09-27T10:01:20.814Z,25.30
2023-09-27T10:03:51.623Z,25.80
2023-09-27T10:06:32.440Z,26.10
2023-09-27T10:09:06.823Z,26.20
2023-09-27T10:11:38.062Z,26.60
2023-09-27T10:14:07.298Z,27.00
2023-09-27T10:16:35.720Z,27.20
2023-09-27T10:19:06.467Z,27.40
2023-09-27T10:21:34.499Z,27.60
2023-09-27T10:24:05.478Z,27.70
2023-09-27T10:26:40.016Z,27.80
2023-09-27T10:29:18.787Z,27.90
2023-09-27T10:32:20.056Z,27.90
2023-09-27T10:34:52.874Z,27.90
2023-09-27T10:37:58.758Z,28.20
2023-09-27T10:40:27.011Z,28.30
2023-09-27T10:42:57.484Z,28.20
2023-09-27T10:45:25.593Z,28.30
2023-09-27T10:47:56.077Z,27.80
2023-09-27T10:50:32.128Z,27.60
2023-09-27T10:53:01.648Z,27.50
2023-09-27T10:55:41.983Z,27.10
2023-09-27T10:58:13.938Z,27.20
2023-09-27T11:00:52.465Z,27.10
2023-09-27T11:03:21.246Z,27.10
2023-09-27T11:05:49.714Z,27.20
2023-09-27T11:08:23.247Z,26.80
2023-09-27T11:10:53.963Z,27.00
2023-09-27T11:13:23.694Z,26.80
2023-09-27T11:15:52.101Z,26.90
2023-09-27T11:18:20.459Z,27.10
2023-09-27T11:20:48.715Z,27.60
2023-09-27T11:23:16.752Z,28.10
2023-09-27T11:25:46.832Z,28.60
2023-09-27T11:28:17.462Z,28.90
2023-09-27T11:30:46.835Z,29.20
2023-09-27T11:33:18.052Z,29.50
2023-09-27T11:35:49.685Z,29.70
2023-09-27T11:38:17.874Z,29.70
2023-09-27T11:40:47.646Z,29.90
2023-09-27T11:43:15.945Z,29.60
2023-09-27T11:45:49.877Z,29.70
2023-09-27T11:48:18.960Z,29.90
2023-09-27T11:50:47.498Z,30.10
2023-09-27T11:53:15.823Z,30.30
2023-09-27T11:55:44.281Z,30.50
2023-09-27T11:58:13.039Z,30.60
2023-09-27T12:00:41.265Z,30.60
2023-09-27T12:03:11.734Z,30.60
2023-09-27T12:05:40.629Z,30.50
2023-09-27T12:08:09.328Z,30.50
2023-09-27T12:10:37.413Z,30.60
2023-09-27T12:13:06.406Z,29.50
2023-09-27T12:15:34.467Z,29.50
2023-09-27T12:18:02.627Z,29.80
2023-09-27T12:20:40.571Z,29.90
2023-09-27T12:23:11.697Z,29.90
2023-09-27T12:25:39.988Z,29.80
2023-09-27T12:28:08.264Z,29.80
2023-09-27T12:30:36.485Z,29.10
2023-09-27T12:33:05.136Z,28.90
2023-09-27T12:35:34.737Z,29.10
2023-09-27T12:38:05.423Z,29.50
2023-09-27T12:40:34.444Z,29.80
2023-09-27T12:43:02.601Z,29.90
2023-09-27T12:45:31.523Z,30.10
2023-09-27T12:47:59.896Z,29.80
2023-09-27T12:50:28.898Z,29.50
2023-09-27T12:52:59.060Z,29.70
2023-09-27T12:55:27.064Z,29.60
2023-09-27T12:57:55.310Z,29.90
2023-09-27T13:00:23.489Z,29.70
2023-09-27T13:02:52.093Z,29.70
2023-09-27T13:05:20.370Z,29.50
2023-09-27T13:07:48.480Z,29.70
2023-09-27T13:10:17.928Z,29.30
2023-09-27T13:12:46.434Z,28.80
2023-09-27T13:15:14.404Z,29.00
2023-09-27T13:17:42.523Z,29.30
2023-09-27T13:20:11.386Z,29.40
2023-09-27T13:22:39.958Z,28.70
2023-09-27T13:25:10.210Z,28.50
2023-09-27T13:27:41.728Z,28.30
2023-09-27T13:30:29.314Z,28.60
2023-09-27T13:33:00.770Z,28.80
2023-09-27T13:35:29.754Z,29.10
2023-09-27T13:37:57.762Z,29.10
2023-09-27T13:40:25.800Z,29.30
2023-09-27T13:42:55.147Z,29.50
2023-09-27T13:45:23.554Z,29.60
2023-09-27T13:47:51.814Z,29.80
2023-09-27T13:50:20.011Z,30.00
2023-09-27T13:52:49.506Z,30.10
2023-09-27T13:55:17.681Z,30.10
2023-09-27T13:57:45.659Z,30.00
2023-09-27T14:00:17.025Z,30.00
2023-09-27T14:02:45.279Z,30.10
2023-09-27T14:05:13.464Z,30.10
2023-09-27T14:07:43.335Z,29.90
2023-09-27T14:10:11.943Z,29.80
2023-09-27T14:12:40.157Z,29.50
2023-09-27T14:15:09.145Z,29.00
2023-09-27T14:17:40.018Z,28.80
2023-09-27T14:20:11.417Z,28.70
2023-09-27T14:22:40.598Z,28.60
2023-09-27T14:25:09.494Z,28.60
2023-09-27T14:27:37.466Z,28.80
2023-09-27T14:30:07.424Z,28.90
2023-09-27T14:32:35.566Z,28.90
2023-09-27T14:35:05.375Z,28.90
2023-09-27T14:37:34.052Z,28.80
2023-09-27T14:40:02.607Z,28.90
2023-09-27T14:42:30.981Z,28.80
2023-09-27T14:44:59.382Z,28.80
2023-09-27T14:47:27.482Z,28.90
2023-09-27T14:49:58.702Z,28.90
2023-09-27T14:52:28.304Z,28.90
2023-09-27T14:54:56.941Z,28.90
2023-09-27T14:57:25.145Z,28.90
2023-09-27T14:59:53.734Z,28.90
2023-09-27T15:02:21.778Z,28.80
2023-09-27T15:04:49.938Z,28.80
2023-09-27T15:07:20.314Z,28.80
2023-09-27T15:09:49.929Z,28.70
2023-09-27T15:12:17.929Z,28.70
2023-09-27T15:14:45.982Z,28.70
2023-09-27T15:17:13.983Z,28.60
2023-09-27T15:19:42.006Z,28.50
2023-09-27T15:22:10.489Z,28.50
2023-09-27T15:24:39.101Z,28.40
2023-09-27T15:27:10.095Z,28.20
2023-09-27T15:29:38.258Z,28.00
2023-09-27T15:32:06.568Z,28.00
2023-09-27T15:34:36.541Z,27.80
2023-09-27T15:37:04.521Z,27.70
2023-09-27T15:39:32.493Z,27.50
2023-09-27T15:42:00.532Z,27.40
2023-09-27T15:44:37.950Z,27.30
2023-09-27T15:47:06.200Z,27.20
2023-09-27T15:49:34.311Z,27.10
2023-09-27T15:52:02.353Z,27.00
2023-09-27T15:54:30.343Z,26.80
2023-09-27T15:56:58.331Z,26.70
2023-09-27T15:59:26.437Z,26.60
2023-09-27T16:01:57.526Z,26.50
2023-09-27T16:04:27.845Z,26.40
2023-09-27T16:06:56.020Z,26.30
2023-09-27T16:09:24.111Z,26.20
2023-09-27T16:11:52.265Z,26.10
2023-09-27T16:14:20.245Z,26.00
2023-09-27T16:16:48.220Z,25.90
2023-09-27T16:19:17.633Z,25.70
2023-09-27T16:21:45.732Z,25.60
2023-09-27T16:24:13.820Z,25.50
2023-09-27T16:26:41.901Z,25.40
2023-09-27T16:29:09.963Z,25.20
2023-09-27T16:31:38.867Z,25.10
2023-09-27T16:34:06.957Z,25.20
2023-09-27T16:36:36.693Z,25.00
2023-09-27T16:39:04.857Z,24.90
2023-09-27T16:41:33.017Z,24.80
2023-09-27T16:44:01.605Z,24.70
2023-09-27T16:46:29.617Z,24.70
2023-09-27T16:48:57.616Z,24.60
2023-09-27T16:51:25.877Z,24.50
2023-09-27T16:53:55.477Z,24.60
2023-09-27T16:56:23.730Z,24.50
2023-09-27T16:58:51.741Z,24.40
2023-09-27T17:01:23.888Z,24.20
2023-09-27T17:03:52.284Z,24.10
2023-09-27T17:06:20.857Z,23.90
2023-09-27T17:08:49.208Z,23.70
2023-09-27T17:11:24.258Z,23.50
2023-09-27T17:13:54.317Z,23.20
2023-09-27T17:16:24.139Z,23.00
2023-09-27T17:18:53.199Z,22.80
2023-09-27T17:21:21.245Z,22.80
2023-09-27T17:23:50.568Z,22.70
2023-09-27T17:26:18.827Z,22.70
2023-09-27T17:28:48.406Z,22.60
2023-09-27T17:31:16.462Z,22.50
2023-09-27T17:33:44.630Z,22.50
2023-09-27T17:36:14.981Z,22.40
2023-09-27T17:38:43.200Z,22.30
2023-09-27T17:41:11.149Z,22.10
2023-09-27T17:43:39.174Z,21.90
2023-09-27T17:46:22.583Z,21.80
2023-09-27T17:48:50.840Z,21.70
2023-09-27T17:51:19.619Z,21.60
2023-09-27T17:53:48.472Z,21.40
2023-09-27T17:56:16.601Z,21.30
2023-09-27T17:58:44.798Z,21.10
2023-09-27T18:01:12.835Z,20.90
2023-09-27T18:03:42.658Z,20.70
2023-09-27T18:06:12.072Z,20.60
2023-09-27T18:08:42.286Z,20.50
2023-09-27T18:11:11.571Z,20.40
2023-09-27T18:13:40.319Z,20.40
2023-09-27T18:16:16.208Z,20.40
2023-09-27T18:18:47.018Z,20.20
2023-09-27T18:21:16.690Z,19.90
2023-09-27T18:23:46.026Z,19.80
2023-09-27T18:26:14.426Z,19.70
2023-09-27T18:28:43.420Z,19.70
2023-09-27T18:31:12.177Z,19.70
2023-09-27T18:33:41.043Z,19.70
2023-09-27T18:36:10.556Z,19.70
2023-09-27T18:38:38.578Z,19.70
2023-09-27T18:41:06.845Z,19.70
2023-09-27T18:43:34.921Z,19.60
2023-09-27T18:46:03.450Z,19.60
2023-09-27T18:48:31.702Z,19.50
2023-09-27T18:50:59.929Z,19.50
2023-09-27T18:53:29.819Z,19.60
2023-09-27T18:55:57.908Z,19.50
2023-09-27T18:58:26.172Z,19.40
2023-09-27T19:00:54.278Z,19.40
2023-09-27T19:03:24.415Z,19.30
2023-09-27T19:05:52.417Z,19.20
2023-09-27T19:08:20.529Z,19.10
2023-09-27T19:10:50.144Z,18.90
2023-09-27T19:13:18.260Z,18.70
2023-09-27T19:15:52.837Z,18.70
2023-09-27T19:18:21.075Z,18.60
2023-09-27T19:20:49.393Z,18.70
2023-09-27T19:23:17.434Z,18.50
2023-09-27T19:25:47.035Z,18.30
2023-09-27T19:28:16.476Z,18.20
2023-09-27T19:30:44.543Z,18.10
2023-09-27T19:33:12.718Z,18.10
2023-09-27T19:35:40.875Z,18.10
2023-09-27T19:38:11.990Z,17.90
2023-09-27T19:40:40.167Z,17.90
2023-09-27T19:43:08.288Z,17.80
2023-09-27T19:45:40.597Z,17.70
2023-09-27T19:48:08.988Z,17.30
2023-09-27T19:50:40.880Z,17.10
2023-09-27T19:53:09.140Z,17.10
2023-09-27T19:55:37.530Z,17.00
2023-09-27T19:58:06.663Z,17.10
2023-09-27T20:00:34.995Z,17.10
2023-09-27T20:03:04.706Z,17.10
2023-09-27T20:05:34.164Z,17.00
2023-09-27T20:08:03.503Z,16.80
2023-09-27T20:10:31.686Z,16.80
2023-09-27T20:12:59.713Z,16.80
2023-09-27T20:15:28.607Z,16.80
2023-09-27T20:17:56.874Z,16.90
2023-09-27T20:20:26.516Z,16.80
2023-09-27T20:22:54.683Z,16.80
2023-09-27T20:25:22.861Z,16.80
2023-09-27T20:27:51.340Z,16.80
2023-09-27T20:30:19.646Z,16.70
2023-09-27T20:32:47.982Z,16.60
2023-09-27T20:35:16.447Z,16.50
2023-09-27T20:37:46.126Z,16.40
2023-09-27T20:40:16.934Z,16.30
2023-09-27T20:42:45.157Z,16.30
2023-09-27T20:45:13.820Z,16.30
2023-09-27T20:47:42.862Z,16.10
2023-09-27T20:50:12.389Z,16.10
2023-09-27T20:52:40.805Z,16.00
2023-09-27T20:55:12.293Z,16.00
2023-09-27T20:57:40.853Z,16.00
2023-09-27T21:00:11.374Z,16.20
2023-09-27T21:02:40.645Z,16.10
2023-09-27T21:05:09.396Z,16.10
2023-09-27T21:07:39.610Z,16.10
2023-09-27T21:10:08.499Z,16.10
2023-09-27T21:12:38.143Z,16.10
2023-09-27T21:15:09.483Z,16.10
2023-09-27T21:17:37.670Z,16.10
2023-09-27T21:20:07.291Z,16.10
2023-09-27T21:22:35.608Z,16.10
2023-09-27T21:25:03.747Z,16.00
2023-09-27T21:27:32.114Z,16.00
2023-09-27T21:30:05.025Z,15.90
2023-09-27T21:32:33.355Z,15.80
2023-09-27T21:35:01.780Z,15.70
2023-09-27T21:37:30.143Z,15.70
2023-09-27T21:39:58.804Z,15.70
2023-09-27T21:42:26.895Z,15.70
2023-09-27T21:44:55.214Z,15.70
2023-09-27T21:47:24.570Z,15.70
2023-09-27T21:49:52.762Z,15.60
2023-09-27T21:52:20.785Z,15.50
2023-09-27T21:54:48.852Z,15.50
2023-09-27T21:57:16.917Z,15.40
2023-09-27T21:59:45.006Z,15.40
2023-09-27T22:02:14.054Z,15.50
2023-09-27T22:04:43.715Z,15.40
2023-09-27T22:07:12.884Z,15.40
2023-09-27T22:09:42.224Z,15.40
2023-09-27T22:12:10.432Z,15.40
2023-09-27T22:14:47.929Z,15.20
2023-09-27T22:17:17.067Z,15.00
2023-09-27T22:19:46.721Z,15.10
2023-09-27T22:22:22.246Z,15.20
2023-09-27T22:24:53.287Z,15.20
2023-09-27T22:27:27.902Z,15.20
2023-09-27T22:29:57.337Z,15.10
2023-09-27T22:32:26.503Z,14.90
2023-09-27T22:34:57.175Z,14.50
2023-09-27T22:37:25.461Z,14.40
2023-09-27T22:40:08.387Z,14.20
2023-09-27T22:42:42.719Z,14.20
2023-09-27T22:45:28.963Z,14.20
2023-09-27T22:47:57.778Z,14.20
2023-09-27T22:50:31.383Z,14.20
2023-09-27T22:53:01.473Z,14.20
2023-09-27T22:55:29.592Z,14.20
2023-09-27T22:57:58.193Z,14.30
2023-09-27T23:00:26.745Z,14.20
2023-09-27T23:02:56.802Z,14.20
2023-09-27T23:05:33.680Z,14.10
2023-09-27T23:08:03.385Z,14.00
2023-09-27T23:10:37.317Z,14.00
2023-09-27T23:13:06.756Z,14.00
2023-09-27T23:15:41.295Z,13.60
2023-09-27T23:18:15.089Z,13.60
2023-09-27T23:20:44.783Z,13.70
2023-09-27T23:23:17.329Z,13.60
2023-09-27T23:25:53.541Z,13.50
2023-09-27T23:28:44.499Z,13.40
2023-09-27T23:31:11.949Z,13.50
2023-09-27T23:33:44.562Z,13.40
2023-09-27T23:36:24.994Z,13.50
2023-09-27T23:39:04.626Z,13.60
2023-09-27T23:41:32.232Z,13.60
2023-09-27T23:44:02.142Z,13.70
2023-09-27T23:46:30.624Z,13.70
2023-09-27T23:49:03.166Z,13.60
2023-09-27T23:51:34.415Z,13.60
2023-09-27T23:54:04.195Z,13.60
2023-09-27T23:56:32.593Z,13.70
2023-09-27T23:59:09.661Z,13.80
